This is the latest recevied weather packets stored in our database for station/object DJ5NF-10. If no packets are shown the sender has not sent any weather packets the latest 10 day(s).
| Time | Temp. | Humidity | Pressure | Rain* | Wind** | Luminosity | Snow |
|---|---|---|---|---|---|---|---|
| 1777557387 | 22.78° C | 27% | 1022.1 hPa | - | - | - | - |
| 1777554686 | 22.78° C | 27% | 1022.4 hPa | - | - | - | - |
| 1777551986 | 22.22° C | 27% | 1022.7 hPa | - | - | - | - |
| 1777549286 | 22.22° C | 27% | 1023.1 hPa | - | - | - | - |
| 1777546586 | 21.67° C | 27% | 1023.7 hPa | - | - | - | - |
| 1777543885 | 21.11° C | 27% | 1024.1 hPa | - | - | - | - |
| 1777541188 | 20.56° C | 27% | 1024.4 hPa | - | - | - | - |
| 1777538488 | 20° C | 27% | 1025.1 hPa | - | - | - | - |
| 1777535788 | 20° C | 28% | 1025.2 hPa | - | - | - | - |
| 1777533088 | 19.44° C | 28% | 1025.3 hPa | - | - | - | - |
| 1777530388 | 19.44° C | 28% | 1025.4 hPa | - | - | - | - |
| 1777527688 | 19.44° C | 28% | 1025.4 hPa | - | - | - | - |
| 1777524988 | 19.44° C | 28% | 1024.9 hPa | - | - | - | - |
| 1777522287 | 19.44° C | 28% | 1024.5 hPa | - | - | - | - |
| 1777516887 | 20° C | 28% | 1024.3 hPa | - | - | - | - |
| 1777514187 | 20.56° C | 28% | 1024.3 hPa | - | - | - | - |
| 1777511487 | 20.56° C | 28% | 1024.1 hPa | - | - | - | - |
| 1777508787 | 21.11° C | 28% | 1024.1 hPa | - | - | - | - |
| 1777506087 | 21.11° C | 29% | 1023.9 hPa | - | - | - | - |
| 1777503386 | 21.67° C | 28% | 1023.6 hPa | - | - | - | - |
| 1777500686 | 21.67° C | 29% | 1023.3 hPa | - | - | - | - |
| 1777497986 | 22.22° C | 29% | 1023 hPa | - | - | - | - |
| 1777495286 | 22.22° C | 29% | 1022.8 hPa | - | - | - | - |
| 1777492586 | 22.22° C | 29% | 1022.4 hPa | - | - | - | - |
| 1777489886 | 22.78° C | 29% | 1021.9 hPa | - | - | - | - |
* Rain since midnight (hover to see other rain measurements)
** Current wind speed in m/s (hover to see current wind gust speed)